EFW7HL EGKK-LEAL
Flight info
| Callsign | EFW7HL |
|---|---|
| Flight time | N/A |
| Altitude | 35000 |
| Route | BOGNA1X BOGNA L612 BENBO UY47 DRAKE L151 SITET UN859 SOPIL DCT BALAN DCT LMG DCT PIMQO DCT AGN DCT ANETO DCT TURUV DCT GRAUS DCT LOBAR DCT SEROX DCT CASPE DCT MLA DCT CRETA DCT RIMES DCT SAURA DCT TATOS DCT PLANA DCT VLC VLC3L |
| Aircraft | A320/M-SDE3FGHIRWY/LB1 |
Departure
| Time | 2026-04-15 16:29 |
|---|---|
| Airport | London Gatwick Airport (EGKK) |
Arrival
| Time | N/A |
|---|---|
| Airport | Alicante-Elche Miguel Hernández Airport (LEAL) |
| Time | Latitude | Longitude | Altitude | Speed | Heading |
|---|---|---|---|---|---|
| 2026-04-15 16:03 | 51.15506 | -0.16773 | 207 ft | 0 kts | 348° |
| 2026-04-15 16:16 | 51.15485 | -0.16765 | 206 ft | 4 kts | 343° |
| 2026-04-15 16:16 | 51.15461 | -0.16749 | 210 ft | 4 kts | 322° |
| 2026-04-15 16:16 | 51.15447 | -0.16723 | 213 ft | 1 kts | 288° |
| 2026-04-15 16:20 | 51.15453 | -0.16758 | 213 ft | 5 kts | 282° |
| 2026-04-15 16:20 | 51.15451 | -0.16826 | 205 ft | 7 kts | 258° |
| 2026-04-15 16:20 | 51.15439 | -0.16907 | 205 ft | 8 kts | 257° |
| 2026-04-15 16:21 | 51.15425 | -0.17000 | 203 ft | 9 kts | 257° |
| 2026-04-15 16:21 | 51.15410 | -0.17108 | 203 ft | 11 kts | 254° |
| 2026-04-15 16:21 | 51.15390 | -0.17192 | 205 ft | 0 kts | 251° |
| 2026-04-15 16:23 | 51.15386 | -0.17210 | 210 ft | 4 kts | 247° |
| 2026-04-15 16:24 | 51.15363 | -0.17238 | 210 ft | 5 kts | 191° |
| 2026-04-15 16:24 | 51.15319 | -0.17230 | 204 ft | 8 kts | 171° |
| 2026-04-15 16:24 | 51.15263 | -0.17193 | 211 ft | 10 kts | 144° |
| 2026-04-15 16:24 | 51.15206 | -0.17125 | 209 ft | 10 kts | 132° |
| 2026-04-15 16:25 | 51.15207 | -0.17011 | 206 ft | 10 kts | 76° |
| 2026-04-15 16:25 | 51.15219 | -0.16921 | 211 ft | 4 kts | 78° |
| 2026-04-15 16:25 | 51.15224 | -0.16886 | 205 ft | 4 kts | 78° |
| 2026-04-15 16:25 | 51.15225 | -0.16853 | 207 ft | 0 kts | 94° |
| 2026-04-15 16:27 | 51.15220 | -0.16817 | 201 ft | 8 kts | 112° |
| 2026-04-15 16:27 | 51.15159 | -0.16780 | 203 ft | 12 kts | 179° |
| 2026-04-15 16:27 | 51.15114 | -0.16830 | 208 ft | 8 kts | 247° |
| 2026-04-15 16:27 | 51.15107 | -0.16877 | 199 ft | 0 kts | 257° |
| 2026-04-15 16:28 | 51.15102 | -0.16914 | 207 ft | 15 kts | 257° |
| 2026-04-15 16:28 | 51.15029 | -0.17442 | 205 ft | 80 kts | 258° |
| 2026-04-15 16:28 | 51.14871 | -0.18591 | 208 ft | 130 kts | 258° |
| 2026-04-15 16:29 | 51.14648 | -0.20178 | 276 ft | 163 kts | 253° |
| 2026-04-15 16:29 | 51.14422 | -0.21970 | 833 ft | 166 kts | 254° |
| 2026-04-15 16:29 | 51.14178 | -0.23750 | 1582 ft | 162 kts | 252° |
| 2026-04-15 16:29 | 51.13910 | -0.25546 | 2118 ft | 173 kts | 251° |
| 2026-04-15 16:30 | 51.13609 | -0.27524 | 2487 ft | 195 kts | 253° |
| 2026-04-15 16:30 | 51.13297 | -0.29743 | 2963 ft | 210 kts | 254° |
| 2026-04-15 16:30 | 51.12996 | -0.31989 | 3941 ft | 204 kts | 254° |
| 2026-04-15 16:30 | 51.12701 | -0.34165 | 4959 ft | 198 kts | 253° |
| 2026-04-15 16:31 | 51.12396 | -0.36342 | 5646 ft | 206 kts | 253° |
| 2026-04-15 16:31 | 51.12080 | -0.38580 | 6428 ft | 207 kts | 253° |
| 2026-04-15 16:31 | 51.11678 | -0.40760 | 7240 ft | 204 kts | 238° |
| 2026-04-15 16:31 | 51.10653 | -0.42269 | 7964 ft | 209 kts | 205° |
| 2026-04-15 16:32 | 51.09169 | -0.42491 | 8722 ft | 223 kts | 182° |
| 2026-04-15 16:32 | 51.07625 | -0.42200 | 9563 ft | 224 kts | 182° |
| 2026-04-15 16:32 | 51.06032 | -0.41885 | 9958 ft | 243 kts | 182° |
| 2026-04-15 16:32 | 51.04267 | -0.41575 | 10212 ft | 263 kts | 181° |
| 2026-04-15 16:33 | 51.02465 | -0.41264 | 11081 ft | 259 kts | 181° |
| 2026-04-15 16:33 | 51.00659 | -0.40962 | 11763 ft | 264 kts | 182° |
| 2026-04-15 16:33 | 50.98819 | -0.40695 | 12427 ft | 267 kts | 182° |
| 2026-04-15 16:33 | 50.96958 | -0.40428 | 13129 ft | 270 kts | 182° |
| 2026-04-15 16:34 | 50.95023 | -0.39960 | 13377 ft | 295 kts | 175° |
| 2026-04-15 16:34 | 50.92956 | -0.39110 | 13525 ft | 318 kts | 171° |
| 2026-04-15 16:34 | 50.90792 | -0.38049 | 13880 ft | 331 kts | 169° |
| 2026-04-15 16:34 | 50.88610 | -0.36913 | 14419 ft | 336 kts | 169° |
| 2026-04-15 16:35 | 50.86382 | -0.35750 | 14997 ft | 338 kts | 169° |
| 2026-04-15 16:35 | 50.84128 | -0.34606 | 15553 ft | 341 kts | 170° |
| 2026-04-15 16:35 | 50.81859 | -0.33487 | 16122 ft | 343 kts | 170° |
| 2026-04-15 16:35 | 50.79566 | -0.32382 | 16690 ft | 345 kts | 170° |
| 2026-04-15 16:36 | 50.77263 | -0.31287 | 17017 ft | 347 kts | 171° |
| 2026-04-15 16:36 | 50.74941 | -0.30196 | 17294 ft | 349 kts | 171° |
| 2026-04-15 16:36 | 50.72610 | -0.29107 | 17906 ft | 350 kts | 171° |
| 2026-04-15 16:36 | 50.70268 | -0.28007 | 18465 ft | 352 kts | 171° |
| 2026-04-15 16:37 | 50.67916 | -0.26897 | 18986 ft | 354 kts | 170° |
| 2026-04-15 16:37 | 50.65557 | -0.25785 | 19543 ft | 354 kts | 170° |
| 2026-04-15 16:37 | 50.63191 | -0.24677 | 20072 ft | 355 kts | 171° |
| 2026-04-15 16:37 | 50.60816 | -0.23564 | 20595 ft | 356 kts | 170° |
| 2026-04-15 16:38 | 50.58438 | -0.22452 | 21129 ft | 357 kts | 170° |
| 2026-04-15 16:38 | 50.56051 | -0.21339 | 21666 ft | 357 kts | 170° |
| 2026-04-15 16:38 | 50.53668 | -0.20225 | 22182 ft | 358 kts | 170° |
| 2026-04-15 16:38 | 50.51282 | -0.19109 | 22695 ft | 358 kts | 170° |
| 2026-04-15 16:39 | 50.48889 | -0.17992 | 23214 ft | 358 kts | 170° |
| 2026-04-15 16:39 | 50.46497 | -0.16877 | 23706 ft | 359 kts | 170° |
| 2026-04-15 16:39 | 50.44098 | -0.15761 | 24104 ft | 360 kts | 170° |
| 2026-04-15 16:39 | 50.41689 | -0.14645 | 24449 ft | 362 kts | 171° |
| 2026-04-15 16:40 | 50.39265 | -0.13521 | 24756 ft | 366 kts | 171° |
| 2026-04-15 16:40 | 50.36814 | -0.12386 | 25073 ft | 369 kts | 171° |
| 2026-04-15 16:40 | 50.34344 | -0.11242 | 25410 ft | 371 kts | 171° |
| 2026-04-15 16:40 | 50.31861 | -0.10092 | 25744 ft | 373 kts | 171° |
| 2026-04-15 16:41 | 50.29362 | -0.08935 | 26079 ft | 376 kts | 171° |
| 2026-04-15 16:41 | 50.26849 | -0.07772 | 26406 ft | 378 kts | 171° |
| 2026-04-15 16:41 | 50.24322 | -0.06605 | 26732 ft | 380 kts | 171° |
| 2026-04-15 16:41 | 50.21779 | -0.05430 | 27067 ft | 382 kts | 171° |
| 2026-04-15 16:42 | 50.19253 | -0.04264 | 27366 ft | 384 kts | 171° |
| 2026-04-15 16:42 | 50.16675 | -0.03079 | 27645 ft | 388 kts | 171° |
| 2026-04-15 16:42 | 50.14068 | -0.01885 | 27931 ft | 391 kts | 171° |
| 2026-04-15 16:42 | 50.11446 | -0.00685 | 28225 ft | 394 kts | 171° |
| 2026-04-15 16:43 | 50.08809 | 0.00512 | 28532 ft | 395 kts | 171° |
| 2026-04-15 16:43 | 50.06151 | 0.01631 | 28869 ft | 396 kts | 172° |
| 2026-04-15 16:43 | 50.03473 | 0.02689 | 29240 ft | 396 kts | 173° |
| 2026-04-15 16:43 | 50.00798 | 0.03714 | 29705 ft | 395 kts | 173° |
| 2026-04-15 16:44 | 49.98131 | 0.04720 | 30161 ft | 394 kts | 173° |
| 2026-04-15 16:44 | 49.95463 | 0.05733 | 30504 ft | 394 kts | 174° |
| 2026-04-15 16:44 | 49.92798 | 0.06757 | 30818 ft | 395 kts | 174° |
| 2026-04-15 16:44 | 49.90129 | 0.07798 | 31177 ft | 395 kts | 173° |
| 2026-04-15 16:45 | 49.87463 | 0.08846 | 31579 ft | 395 kts | 173° |
| 2026-04-15 16:45 | 49.84807 | 0.09894 | 31983 ft | 393 kts | 174° |
| 2026-04-15 16:45 | 49.82155 | 0.10939 | 32393 ft | 392 kts | 174° |
| 2026-04-15 16:45 | 49.79515 | 0.11974 | 32796 ft | 391 kts | 174° |
| 2026-04-15 16:46 | 49.76880 | 0.13004 | 33214 ft | 390 kts | 174° |
| 2026-04-15 16:46 | 49.74252 | 0.14030 | 33597 ft | 389 kts | 174° |
| 2026-04-15 16:46 | 49.71632 | 0.15050 | 33978 ft | 388 kts | 174° |
| 2026-04-15 16:46 | 49.69011 | 0.16069 | 34307 ft | 388 kts | 174° |
| 2026-04-15 16:47 | 49.66390 | 0.17094 | 34590 ft | 389 kts | 174° |
| 2026-04-15 16:47 | 49.63766 | 0.18144 | 34833 ft | 390 kts | 174° |
| 2026-04-15 16:47 | 49.61138 | 0.19210 | 35047 ft | 392 kts | 173° |
| 2026-04-15 16:48 | 49.55803 | 0.21363 | 35140 ft | 402 kts | 173° |
| 2026-04-15 16:48 | 49.50342 | 0.23563 | 35126 ft | 408 kts | 173° |
| 2026-04-15 16:49 | 49.44827 | 0.25772 | 35137 ft | 410 kts | 173° |
| 2026-04-15 16:49 | 49.39336 | 0.27965 | 35140 ft | 411 kts | 173° |
| 2026-04-15 16:50 | 49.33806 | 0.30175 | 35138 ft | 411 kts | 173° |
| 2026-04-15 16:50 | 49.28270 | 0.32402 | 35115 ft | 411 kts | 173° |
| 2026-04-15 16:51 | 49.22742 | 0.34738 | 35115 ft | 413 kts | 172° |
| 2026-04-15 16:51 | 49.17204 | 0.37108 | 35123 ft | 413 kts | 172° |
| 2026-04-15 16:52 | 49.11651 | 0.39454 | 35134 ft | 414 kts | 173° |
| 2026-04-15 16:52 | 49.06089 | 0.41770 | 35109 ft | 415 kts | 174° |
| 2026-04-15 16:53 | 49.00497 | 0.44100 | 35052 ft | 418 kts | 173° |
| 2026-04-15 16:53 | 48.94851 | 0.46455 | 35132 ft | 422 kts | 172° |
| 2026-04-15 16:54 | 48.89183 | 0.48824 | 35144 ft | 422 kts | 172° |
| 2026-04-15 16:54 | 48.83552 | 0.51174 | 35151 ft | 422 kts | 172° |
| 2026-04-15 16:55 | 48.77887 | 0.53520 | 35158 ft | 422 kts | 173° |
| 2026-04-15 16:55 | 48.72211 | 0.55770 | 35162 ft | 421 kts | 173° |
| 2026-04-15 16:56 | 48.66518 | 0.57959 | 35165 ft | 421 kts | 173° |
| 2026-04-15 16:56 | 48.60829 | 0.60161 | 35134 ft | 422 kts | 173° |
| 2026-04-15 16:57 | 48.55160 | 0.62366 | 35139 ft | 423 kts | 173° |
| 2026-04-15 16:57 | 48.49449 | 0.64609 | 35144 ft | 424 kts | 173° |
| 2026-04-15 16:58 | 48.43742 | 0.66936 | 35153 ft | 425 kts | 172° |
| 2026-04-15 16:58 | 48.38029 | 0.69299 | 35136 ft | 426 kts | 172° |
| 2026-04-15 16:59 | 48.32336 | 0.71621 | 35144 ft | 427 kts | 172° |
| 2026-04-15 16:59 | 48.26591 | 0.73927 | 35150 ft | 427 kts | 173° |
| 2026-04-15 17:00 | 48.20841 | 0.76214 | 35128 ft | 428 kts | 173° |
| 2026-04-15 17:00 | 48.15057 | 0.78486 | 35141 ft | 429 kts | 173° |
| 2026-04-15 17:01 | 48.09304 | 0.80736 | 35148 ft | 430 kts | 173° |
| 2026-04-15 17:01 | 48.03501 | 0.83005 | 35157 ft | 430 kts | 173° |
| 2026-04-15 17:02 | 47.97716 | 0.85271 | 35135 ft | 431 kts | 172° |
| 2026-04-15 17:02 | 47.91902 | 0.87548 | 35141 ft | 433 kts | 172° |
| 2026-04-15 17:03 | 47.86055 | 0.89814 | 35157 ft | 434 kts | 172° |
| 2026-04-15 17:03 | 47.81188 | 0.91701 | 35161 ft | 434 kts | 172° |
| 2026-04-15 17:04 | 47.75327 | 0.93976 | 35148 ft | 435 kts | 172° |
| 2026-04-15 17:04 | 47.69484 | 0.96232 | 35159 ft | 436 kts | 172° |
| 2026-04-15 17:05 | 47.63593 | 0.98496 | 35172 ft | 437 kts | 172° |
| 2026-04-15 17:05 | 47.57702 | 1.00761 | 35165 ft | 437 kts | 172° |
| 2026-04-15 17:06 | 47.51808 | 1.03024 | 35169 ft | 438 kts | 172° |
| 2026-04-15 17:06 | 47.45892 | 1.05290 | 35184 ft | 438 kts | 172° |
| 2026-04-15 17:07 | 47.39981 | 1.06389 | 35185 ft | 425 kts | 187° |
| 2026-04-15 17:07 | 47.34056 | 1.06227 | 35171 ft | 426 kts | 187° |
| 2026-04-15 17:08 | 47.28114 | 1.06085 | 35184 ft | 427 kts | 187° |
| 2026-04-15 17:08 | 47.22200 | 1.05943 | 35190 ft | 427 kts | 187° |
| 2026-04-15 17:09 | 47.16245 | 1.05808 | 35173 ft | 428 kts | 187° |
| 2026-04-15 17:09 | 47.10280 | 1.05676 | 35184 ft | 429 kts | 187° |
| 2026-04-15 17:10 | 47.04296 | 1.05536 | 35194 ft | 429 kts | 187° |
| 2026-04-15 17:10 | 46.98360 | 1.05357 | 35200 ft | 429 kts | 187° |
| 2026-04-15 17:11 | 46.92385 | 1.05085 | 35193 ft | 429 kts | 187° |
| 2026-04-15 17:11 | 46.86403 | 1.04802 | 35197 ft | 430 kts | 187° |
| 2026-04-15 17:12 | 46.77456 | 1.04420 | 35208 ft | 430 kts | 187° |
| 2026-04-15 17:12 | 46.71431 | 1.04168 | 35214 ft | 430 kts | 187° |
| 2026-04-15 17:13 | 46.66480 | 1.03951 | 35216 ft | 430 kts | 187° |